createdAt,value
2022-11-08T00:02:07.758Z,101648.34
2022-11-08T00:04:38.770Z,101647.97
2022-11-08T00:07:27.724Z,101633.25
2022-11-08T00:10:16.852Z,101642.94
2022-11-08T00:13:05.523Z,101640.56
2022-11-08T00:15:39.851Z,101641.06
2022-11-08T00:18:11.020Z,101637.34
2022-11-08T00:20:41.734Z,101628.13
2022-11-08T00:23:12.602Z,101629.25
2022-11-08T00:25:43.320Z,101623.25
2022-11-08T00:28:14.066Z,101615.50
2022-11-08T00:30:45.547Z,101623.78
2022-11-08T00:33:16.247Z,101616.06
2022-11-08T00:35:47.025Z,101612.69
2022-11-08T00:38:18.003Z,101607.59
2022-11-08T00:40:49.128Z,101609.13
2022-11-08T00:43:20.303Z,101608.56
2022-11-08T00:45:51.157Z,101610.19
2022-11-08T00:48:22.228Z,101607.13
2022-11-08T00:50:53.186Z,101612.97
2022-11-08T00:53:24.099Z,101613.16
2022-11-08T00:56:07.768Z,101614.31
2022-11-08T00:58:38.452Z,101601.16
2022-11-08T01:01:21.561Z,101609.28
2022-11-08T01:03:52.666Z,101607.66
2022-11-08T01:06:24.716Z,101584.72
2022-11-08T01:08:58.660Z,101601.53
2022-11-08T01:11:30.255Z,101596.81
2022-11-08T01:14:00.954Z,101587.06
2022-11-08T01:16:34.108Z,101556.44
2022-11-08T01:19:05.507Z,101577.13
2022-11-08T01:21:36.082Z,101571.66
2022-11-08T01:24:07.546Z,101558.22
2022-11-08T01:26:37.972Z,101565.66
2022-11-08T01:29:08.852Z,101568.03
2022-11-08T01:31:39.947Z,101559.56
2022-11-08T01:34:10.800Z,101555.78
2022-11-08T01:36:41.664Z,101552.38
2022-11-08T01:39:12.948Z,101544.28
2022-11-08T01:41:43.943Z,101537.16
2022-11-08T01:44:19.328Z,101538.88
2022-11-08T01:46:51.281Z,101531.06
2022-11-08T01:49:34.134Z,101535.16
2022-11-08T01:52:13.151Z,101525.63
2022-11-08T01:55:02.676Z,101523.78
2022-11-08T01:57:50.276Z,101524.31
2022-11-08T02:00:21.771Z,101512.88
2022-11-08T02:02:58.730Z,101521.34
2022-11-08T02:05:31.913Z,101511.28
2022-11-08T02:08:08.110Z,101499.81
2022-11-08T02:10:41.603Z,101491.50
2022-11-08T02:13:16.324Z,101498.38
2022-11-08T02:15:47.648Z,101501.50
2022-11-08T02:18:20.029Z,101501.00
2022-11-08T02:21:30.941Z,101502.41
2022-11-08T02:24:03.626Z,101506.66
2022-11-08T02:26:37.174Z,101499.06
2022-11-08T02:29:33.825Z,101503.63
2022-11-08T02:32:06.933Z,101487.63
2022-11-08T02:34:43.268Z,101495.81
2022-11-08T02:37:16.740Z,101497.25
2022-11-08T02:39:49.289Z,101489.00
2022-11-08T02:42:22.084Z,101473.06
2022-11-08T02:44:52.761Z,101475.81
2022-11-08T02:47:25.593Z,101474.38
2022-11-08T02:49:56.305Z,101485.47
2022-11-08T02:52:27.223Z,101475.97
2022-11-08T02:54:58.180Z,101463.63
2022-11-08T02:57:29.131Z,101462.19
2022-11-08T02:59:59.829Z,101456.06
2022-11-08T03:02:30.849Z,101471.31
2022-11-08T03:05:01.632Z,101466.88
2022-11-08T03:07:33.123Z,101463.56
2022-11-08T03:10:03.825Z,101465.28
2022-11-08T03:12:34.751Z,101454.91
2022-11-08T03:15:07.236Z,101448.66
2022-11-08T03:17:38.516Z,101456.72
2022-11-08T03:20:10.073Z,101446.69
2022-11-08T03:22:40.974Z,101449.25
2022-11-08T03:25:11.801Z,101453.34
2022-11-08T03:27:43.950Z,101446.38
2022-11-08T03:30:15.017Z,101446.41
2022-11-08T03:32:48.254Z,101449.78
2022-11-08T03:35:19.273Z,101450.09
2022-11-08T03:37:57.958Z,101443.94
2022-11-08T03:40:29.541Z,101439.03
2022-11-08T03:43:00.280Z,101444.19
2022-11-08T03:45:31.588Z,101436.91
2022-11-08T03:48:02.468Z,101428.13
2022-11-08T03:50:33.389Z,101423.69
2022-11-08T03:53:04.355Z,101422.22
2022-11-08T03:55:35.245Z,101422.75
2022-11-08T03:58:05.988Z,101420.47
2022-11-08T04:00:36.851Z,101413.88
2022-11-08T04:03:07.505Z,101409.44
2022-11-08T04:05:38.217Z,101413.63
2022-11-08T04:08:08.932Z,101414.41
2022-11-08T04:10:39.635Z,101421.69
2022-11-08T04:13:29.343Z,101415.72
2022-11-08T04:16:00.515Z,101418.94
2022-11-08T04:18:49.649Z,101404.66
2022-11-08T04:21:23.093Z,101397.06
2022-11-08T04:23:55.038Z,101394.09
2022-11-08T04:26:25.431Z,101382.88
2022-11-08T04:28:56.112Z,101388.66
2022-11-08T04:31:27.025Z,101393.44
2022-11-08T04:33:58.623Z,101401.19
2022-11-08T04:36:29.558Z,101410.91
2022-11-08T04:39:00.500Z,101415.47
2022-11-08T04:41:31.445Z,101422.56
2022-11-08T04:44:02.331Z,101425.81
2022-11-08T04:46:33.299Z,101424.31
2022-11-08T04:49:04.244Z,101430.06
2022-11-08T04:51:36.105Z,101431.44
2022-11-08T04:54:09.079Z,101433.06
2022-11-08T04:56:40.018Z,101431.19
2022-11-08T04:59:12.260Z,101439.44
2022-11-08T05:01:43.852Z,101435.34
2022-11-08T05:04:14.611Z,101426.09
2022-11-08T05:06:46.070Z,101437.81
2022-11-08T05:09:17.150Z,101433.69
2022-11-08T05:11:47.843Z,101434.84
2022-11-08T05:14:18.745Z,101437.53
2022-11-08T05:16:49.805Z,101424.97
2022-11-08T05:19:41.159Z,101435.63
2022-11-08T05:22:30.444Z,101451.47
2022-11-08T05:25:01.494Z,101451.19
2022-11-08T05:27:33.012Z,101451.22
2022-11-08T05:30:04.143Z,101456.63
2022-11-08T05:32:34.914Z,101461.81
2022-11-08T05:35:06.573Z,101460.47
2022-11-08T05:37:37.440Z,101461.56
2022-11-08T05:40:09.042Z,101458.81
2022-11-08T05:42:39.878Z,101464.81
2022-11-08T05:45:11.121Z,101463.16
2022-11-08T05:47:45.335Z,101465.88
2022-11-08T05:50:19.347Z,101467.44
2022-11-08T05:52:50.965Z,101466.38
2022-11-08T05:55:22.108Z,101462.31
2022-11-08T05:57:53.902Z,101470.69
2022-11-08T06:00:24.772Z,101470.75
2022-11-08T06:02:55.840Z,101469.13
2022-11-08T06:05:26.665Z,101468.53
2022-11-08T06:07:57.463Z,101469.63
2022-11-08T06:10:28.778Z,101469.19
2022-11-08T06:13:03.159Z,101467.69
2022-11-08T06:15:34.032Z,101470.44
2022-11-08T06:18:06.556Z,101462.41
2022-11-08T06:20:37.515Z,101465.25
2022-11-08T06:23:08.254Z,101467.41
2022-11-08T06:25:41.092Z,101468.47
2022-11-08T06:28:14.698Z,101465.75
2022-11-08T06:30:45.970Z,101467.34
2022-11-08T06:33:17.162Z,101473.03
2022-11-08T06:35:48.792Z,101473.56
2022-11-08T06:38:19.968Z,101467.53
2022-11-08T06:40:51.017Z,101469.16
2022-11-08T06:43:22.404Z,101477.81
2022-11-08T06:45:53.528Z,101481.81
2022-11-08T06:48:24.425Z,101479.63
2022-11-08T06:50:55.357Z,101486.00
2022-11-08T06:53:26.224Z,101485.22
2022-11-08T06:55:57.180Z,101485.00
2022-11-08T06:58:27.949Z,101494.25
2022-11-08T07:00:58.720Z,101490.41
2022-11-08T07:03:29.382Z,101504.72
2022-11-08T07:06:00.418Z,101512.25
2022-11-08T07:08:31.789Z,101516.63
2022-11-08T07:11:02.792Z,101510.41
2022-11-08T07:13:33.869Z,101505.25
2022-11-08T07:16:04.821Z,101519.69
2022-11-08T07:18:35.818Z,101505.25
2022-11-08T07:21:06.856Z,101510.41
2022-11-08T07:23:37.813Z,101515.84
2022-11-08T07:26:10.445Z,101513.13
2022-11-08T07:28:41.267Z,101511.78
2022-11-08T07:31:13.666Z,101524.97
2022-11-08T07:33:44.808Z,101524.53
2022-11-08T07:36:16.422Z,101524.91
2022-11-08T07:38:47.549Z,101532.09
2022-11-08T07:41:18.763Z,101532.56
2022-11-08T07:43:50.603Z,101525.28
2022-11-08T07:46:22.294Z,101525.41
2022-11-08T07:48:53.423Z,101529.19
2022-11-08T07:51:24.513Z,101524.97
2022-11-08T07:53:58.017Z,101535.22
2022-11-08T07:56:31.255Z,101536.03
2022-11-08T07:59:02.153Z,101534.63
2022-11-08T08:01:33.047Z,101532.16
2022-11-08T08:04:04.086Z,101531.41
2022-11-08T08:06:35.182Z,101519.84
2022-11-08T08:09:06.331Z,101528.66
2022-11-08T08:11:37.097Z,101542.00
2022-11-08T08:14:07.805Z,101530.28
2022-11-08T08:16:38.785Z,101538.50
2022-11-08T08:19:09.568Z,101524.25
2022-11-08T08:21:40.281Z,101532.75
2022-11-08T08:24:11.493Z,101528.13
2022-11-08T08:26:42.363Z,101525.97
2022-11-08T08:29:13.270Z,101534.34
2022-11-08T08:31:44.504Z,101533.25
2022-11-08T08:34:17.119Z,101531.84
2022-11-08T08:36:48.437Z,101533.19
2022-11-08T08:39:19.696Z,101535.91
2022-11-08T08:41:50.628Z,101532.16
2022-11-08T08:44:21.783Z,101541.34
2022-11-08T08:46:53.031Z,101539.72
2022-11-08T08:49:23.957Z,101544.34
2022-11-08T08:51:54.657Z,101541.63
2022-11-08T08:54:29.286Z,101543.22
2022-11-08T08:57:00.527Z,101548.66
2022-11-08T09:02:22.312Z,101544.84
2022-11-08T09:04:53.552Z,101549.69
2022-11-08T09:07:24.293Z,101547.44
2022-11-08T09:09:55.225Z,101552.94
2022-11-08T09:12:35.114Z,101557.00
2022-11-08T09:15:07.160Z,101563.78
2022-11-08T09:17:37.888Z,101563.72
2022-11-08T09:20:09.218Z,101557.00
2022-11-08T09:22:40.464Z,101556.66
2022-11-08T09:25:11.927Z,101570.28
2022-11-08T09:27:42.744Z,101567.19
2022-11-08T09:30:13.792Z,101561.41
2022-11-08T09:33:00.413Z,101571.13
2022-11-08T09:35:32.129Z,101563.00
2022-11-08T09:38:03.394Z,101560.03
2022-11-08T09:40:56.064Z,101565.25
2022-11-08T09:43:50.731Z,101560.91
2022-11-08T09:46:31.692Z,101554.84
2022-11-08T09:49:02.872Z,101545.38
2022-11-08T09:51:34.658Z,101539.69
2022-11-08T09:54:07.250Z,101542.72
2022-11-08T09:56:39.647Z,101534.28
2022-11-08T09:59:28.084Z,101535.94
2022-11-08T10:01:58.948Z,101532.09
2022-11-08T10:04:34.150Z,101526.78
2022-11-08T10:07:14.791Z,101525.09
2022-11-08T10:09:54.606Z,101530.41
2022-11-08T10:12:43.789Z,101515.44
2022-11-08T10:15:23.968Z,101518.91
2022-11-08T10:18:20.463Z,101514.81
2022-11-08T10:21:09.360Z,101513.72
2022-11-08T10:23:46.151Z,101516.16
2022-11-08T10:26:26.867Z,101513.97
2022-11-08T10:29:22.956Z,101509.13
2022-11-08T10:32:19.401Z,101507.75
2022-11-08T10:35:00.027Z,101504.44
2022-11-08T10:37:34.793Z,101506.59
2022-11-08T10:40:29.537Z,101508.56
2022-11-08T10:43:09.207Z,101500.34
2022-11-08T10:45:40.519Z,101497.59
2022-11-08T10:48:14.141Z,101501.13
2022-11-08T10:50:52.141Z,101496.22
2022-11-08T10:53:33.966Z,101506.78
2022-11-08T10:56:04.961Z,101505.94
2022-11-08T10:58:40.792Z,101498.63
2022-11-08T11:01:25.166Z,101501.88
2022-11-08T11:03:56.440Z,101497.25
2022-11-08T11:06:32.090Z,101491.28
2022-11-08T11:09:06.285Z,101485.59
2022-11-08T11:11:40.601Z,101487.75
2022-11-08T11:14:25.271Z,101483.28
2022-11-08T11:17:18.060Z,101479.19
2022-11-08T11:19:59.523Z,101483.59
2022-11-08T11:22:35.352Z,101479.66
2022-11-08T11:25:23.992Z,101485.41
2022-11-08T11:28:00.203Z,101484.06
2022-11-08T11:30:32.249Z,101492.38
2022-11-08T11:33:28.582Z,101478.81
2022-11-08T11:36:14.206Z,101482.59
2022-11-08T11:38:55.416Z,101488.59
2022-11-08T11:42:08.705Z,101491.28
2022-11-08T11:44:48.328Z,101479.34
2022-11-08T11:47:28.346Z,101485.41
2022-11-08T11:50:05.520Z,101488.66
2022-11-08T11:52:36.863Z,101486.41
2022-11-08T11:55:08.041Z,101488.66
2022-11-08T11:58:07.333Z,101483.97
2022-11-08T12:00:43.587Z,101480.44
2022-11-08T12:03:38.331Z,101471.41
2022-11-08T12:06:33.183Z,101479.16
2022-11-08T12:09:29.675Z,101468.63
2022-11-08T12:12:19.477Z,101457.63
2022-11-08T12:15:08.494Z,101457.94
2022-11-08T12:18:09.795Z,101458.31
2022-11-08T12:20:52.848Z,101454.13
2022-11-08T12:23:29.299Z,101451.09
2022-11-08T12:26:11.395Z,101447.53
2022-11-08T12:29:04.591Z,101438.06
2022-11-08T12:31:38.929Z,101428.16
2022-11-08T12:34:25.922Z,101428.03
2022-11-08T12:37:25.216Z,101419.34
2022-11-08T12:40:23.644Z,101403.00
2022-11-08T12:43:03.515Z,101394.22
2022-11-08T12:45:43.109Z,101383.00
2022-11-08T12:48:22.907Z,101386.53
2022-11-08T12:51:04.636Z,101381.81
2022-11-08T12:54:01.303Z,101381.53
2022-11-08T12:56:46.290Z,101377.50
2022-11-08T12:59:31.520Z,101380.03
2022-11-08T13:02:04.535Z,101378.59
2022-11-08T13:04:41.361Z,101372.78
2022-11-08T13:07:43.037Z,101363.09
2022-11-08T13:10:17.828Z,101356.34
2022-11-08T13:13:15.071Z,101352.16
2022-11-08T13:16:11.596Z,101348.19
2022-11-08T13:18:55.863Z,101339.63
2022-11-08T13:21:35.771Z,101346.56
2022-11-08T13:24:38.097Z,101351.09
2022-11-08T13:27:42.766Z,101344.16
2022-11-08T13:30:19.935Z,101341.09
2022-11-08T13:33:11.569Z,101335.97
2022-11-08T13:36:00.472Z,101342.78
2022-11-08T13:38:43.438Z,101337.53
2022-11-08T13:41:21.569Z,101338.31
2022-11-08T13:43:55.619Z,101331.38
2022-11-08T13:46:32.410Z,101328.59
2022-11-08T13:49:09.254Z,101320.00
2022-11-08T13:51:43.763Z,101309.34
2022-11-08T13:54:23.837Z,101305.78
2022-11-08T13:57:02.031Z,101294.09
2022-11-08T13:59:33.026Z,101291.72
2022-11-08T14:02:06.992Z,101278.97
2022-11-08T14:04:42.107Z,101281.13
2022-11-08T14:07:26.653Z,101277.28
2022-11-08T14:10:18.702Z,101276.47
2022-11-08T14:13:14.036Z,101280.19
2022-11-08T14:15:49.329Z,101274.00
2022-11-08T14:18:20.074Z,101272.31
2022-11-08T14:20:51.780Z,101275.56
2022-11-08T14:23:22.354Z,101260.88
2022-11-08T14:25:58.944Z,101269.06
2022-11-08T14:28:36.174Z,101262.47
2022-11-08T14:31:09.076Z,101266.31
2022-11-08T14:33:46.129Z,101266.00
2022-11-08T14:36:19.506Z,101257.53
2022-11-08T14:39:07.214Z,101257.25
2022-11-08T14:41:39.147Z,101250.50
2022-11-08T14:44:17.125Z,101244.69
2022-11-08T14:46:48.222Z,101246.59
2022-11-08T14:49:36.584Z,101243.63
2022-11-08T14:52:24.034Z,101243.75
2022-11-08T14:55:24.819Z,101237.78
2022-11-08T14:57:55.567Z,101239.13
2022-11-08T15:00:31.175Z,101233.34
2022-11-08T15:03:06.318Z,101233.03
2022-11-08T15:05:43.719Z,101230.63
2022-11-08T15:08:25.685Z,101230.97
2022-11-08T15:11:11.674Z,101224.53
2022-11-08T15:13:50.930Z,101226.47
2022-11-08T15:16:22.186Z,101215.00
2022-11-08T15:18:53.349Z,101213.38
2022-11-08T15:21:34.239Z,101221.91
2022-11-08T15:24:15.769Z,101208.91
2022-11-08T15:27:06.043Z,101205.94
2022-11-08T15:29:54.639Z,101212.69
2022-11-08T15:32:25.846Z,101200.94
2022-11-08T15:35:00.208Z,101200.38
2022-11-08T15:37:44.116Z,101195.97
2022-11-08T15:40:29.596Z,101200.31
2022-11-08T15:43:01.686Z,101193.25
2022-11-08T15:45:36.744Z,101199.69
2022-11-08T15:48:20.393Z,101192.72
2022-11-08T15:50:52.186Z,101199.75
2022-11-08T15:53:23.186Z,101194.97
2022-11-08T15:56:06.079Z,101189.56
2022-11-08T15:58:39.165Z,101190.81
2022-11-08T16:01:21.667Z,101196.41
2022-11-08T16:03:54.011Z,101187.28
2022-11-08T16:06:25.059Z,101189.72
2022-11-08T16:08:55.975Z,101184.59
2022-11-08T16:11:26.801Z,101184.75
2022-11-08T16:13:57.955Z,101186.16
2022-11-08T16:16:33.991Z,101192.78
2022-11-08T16:19:06.200Z,101188.22
2022-11-08T16:21:37.083Z,101182.16
2022-11-08T16:24:09.041Z,101180.34
2022-11-08T16:26:40.684Z,101188.69
2022-11-08T16:29:25.887Z,101181.16
2022-11-08T16:31:56.990Z,101175.16
2022-11-08T16:34:28.040Z,101176.25
2022-11-08T16:36:58.915Z,101171.97
2022-11-08T16:39:29.922Z,101172.47
2022-11-08T16:42:00.695Z,101177.31
2022-11-08T16:44:31.763Z,101171.97
2022-11-08T16:47:02.578Z,101163.94
2022-11-08T16:49:34.961Z,101166.28
2022-11-08T16:52:05.938Z,101162.47
2022-11-08T16:54:36.733Z,101166.56
2022-11-08T16:57:33.078Z,101153.28
2022-11-08T16:59:58.241Z,101154.97
2022-11-08T17:02:34.884Z,101162.84
2022-11-08T17:05:06.604Z,101154.97
2022-11-08T17:07:37.144Z,101161.38
2022-11-08T17:10:08.332Z,101160.63
2022-11-08T17:12:39.191Z,101174.25
2022-11-08T17:15:22.651Z,101171.47
2022-11-08T17:17:55.503Z,101165.34
2022-11-08T17:20:27.574Z,101169.69
2022-11-08T17:22:58.590Z,101166.94
2022-11-08T17:25:29.505Z,101172.41
2022-11-08T17:28:00.589Z,101172.16
2022-11-08T17:30:31.615Z,101170.59
2022-11-08T17:33:02.624Z,101153.72
2022-11-08T17:35:33.927Z,101158.69
2022-11-08T17:38:04.868Z,101172.06
2022-11-08T17:40:35.967Z,101169.84
2022-11-08T17:43:07.218Z,101168.59
2022-11-08T17:45:38.659Z,101168.91
2022-11-08T17:48:09.839Z,101164.09
2022-11-08T17:50:40.732Z,101160.31
2022-11-08T17:53:11.479Z,101159.47
2022-11-08T17:55:42.227Z,101167.66
2022-11-08T17:58:13.297Z,101165.00
2022-11-08T18:00:44.270Z,101161.59
2022-11-08T18:03:17.310Z,101154.84
2022-11-08T18:06:15.296Z,101167.34
2022-11-08T18:08:46.669Z,101145.03
2022-11-08T18:11:17.890Z,101163.47
2022-11-08T18:13:48.661Z,101155.88
2022-11-08T18:16:23.558Z,101162.63
2022-11-08T18:18:55.430Z,101131.31
2022-11-08T18:21:25.522Z,101149.22
2022-11-08T18:23:56.994Z,101154.13
2022-11-08T18:26:28.680Z,101143.16
2022-11-08T18:28:59.464Z,101154.59
2022-11-08T18:31:31.515Z,101157.94
2022-11-08T18:34:02.998Z,101150.78
2022-11-08T18:36:34.389Z,101148.41
2022-11-08T18:39:05.334Z,101148.56
2022-11-08T18:41:36.348Z,101132.19
2022-11-08T18:44:08.107Z,101154.63
2022-11-08T18:46:43.007Z,101151.72
2022-11-08T18:49:14.470Z,101154.22
2022-11-08T18:51:45.491Z,101152.66
2022-11-08T18:54:16.261Z,101152.44
2022-11-08T18:56:47.301Z,101140.69
2022-11-08T18:59:18.200Z,101152.72
2022-11-08T19:01:49.253Z,101150.78
2022-11-08T19:04:20.268Z,101133.41
2022-11-08T19:06:54.525Z,101147.47
2022-11-08T19:09:25.630Z,101124.59
2022-11-08T19:11:59.440Z,101145.28
2022-11-08T19:14:32.650Z,101141.69
2022-11-08T19:17:03.919Z,101133.59
2022-11-08T19:19:34.702Z,101134.13
2022-11-08T19:22:06.576Z,101122.97
2022-11-08T19:24:37.547Z,101131.09
2022-11-08T19:27:08.857Z,101129.75
2022-11-08T19:29:39.832Z,101125.66
2022-11-08T19:32:10.832Z,101119.41
2022-11-08T19:34:42.839Z,101119.94
2022-11-08T19:37:13.911Z,101119.44
2022-11-08T19:39:44.619Z,101117.25
2022-11-08T19:42:15.384Z,101104.19
2022-11-08T19:44:46.468Z,101115.91
2022-11-08T19:47:17.438Z,101109.38
2022-11-08T19:49:48.376Z,101108.81
2022-11-08T19:52:19.355Z,101108.81
2022-11-08T19:54:51.707Z,101112.63
2022-11-08T19:57:23.043Z,101104.72
2022-11-08T19:59:54.243Z,101108.53
2022-11-08T20:02:25.114Z,101116.19
2022-11-08T20:04:56.041Z,101092.19
2022-11-08T20:07:26.789Z,101082.38
2022-11-08T20:09:57.707Z,101102.00
2022-11-08T20:12:29.010Z,101103.09
2022-11-08T20:15:00.070Z,101097.66
2022-11-08T20:17:30.864Z,101097.06
2022-11-08T20:20:02.204Z,101096.81
2022-11-08T20:22:33.285Z,101089.75
2022-11-08T20:25:04.196Z,101086.72
2022-11-08T20:27:35.286Z,101089.47
2022-11-08T20:30:06.583Z,101084.88
2022-11-08T20:32:37.821Z,101090.25
2022-11-08T20:35:09.174Z,101074.53
2022-11-08T20:37:40.418Z,101089.22
2022-11-08T20:40:11.940Z,101088.09
2022-11-08T20:42:42.917Z,101083.19
2022-11-08T20:45:15.311Z,101080.19
2022-11-08T20:47:48.272Z,101088.38
2022-11-08T20:50:19.320Z,101076.28
2022-11-08T20:52:50.184Z,101062.19
2022-11-08T20:55:20.909Z,101080.06
2022-11-08T20:57:51.792Z,101079.75
2022-11-08T21:00:37.841Z,101078.09
2022-11-08T21:03:17.871Z,101077.59
2022-11-08T21:05:59.022Z,101080.59
2022-11-08T21:11:22.541Z,101063.09
2022-11-08T21:13:53.638Z,101072.88
2022-11-08T21:16:30.357Z,101086.28
2022-11-08T21:19:04.556Z,101083.47
2022-11-08T21:21:35.934Z,101066.81
2022-11-08T21:24:07.051Z,101068.94
2022-11-08T21:26:38.145Z,101077.44
2022-11-08T21:29:09.640Z,101071.03
2022-11-08T21:31:40.891Z,101074.16
2022-11-08T21:34:12.112Z,101083.72
2022-11-08T21:36:43.122Z,101072.41
2022-11-08T21:39:14.168Z,101075.97
2022-11-08T21:41:45.117Z,101072.41
2022-11-08T21:44:16.319Z,101072.44
2022-11-08T21:46:48.092Z,101069.16
2022-11-08T21:49:19.223Z,101071.91
2022-11-08T21:51:50.510Z,101067.75
2022-11-08T21:54:21.545Z,101052.00
2022-11-08T21:56:52.878Z,101045.56
2022-11-08T21:59:23.899Z,101071.50
2022-11-08T22:01:55.025Z,101069.63
2022-11-08T22:04:26.051Z,101055.53
2022-11-08T22:06:57.111Z,101059.97
2022-11-08T22:09:28.191Z,101065.50
2022-11-08T22:11:59.381Z,101057.19
2022-11-08T22:14:30.696Z,101069.59
2022-11-08T22:17:01.839Z,101044.75
2022-11-08T22:19:33.055Z,101057.84
2022-11-08T22:22:04.283Z,101059.72
2022-11-08T22:24:35.093Z,101056.81
2022-11-08T22:27:06.321Z,101056.13
2022-11-08T22:29:37.520Z,101054.25
2022-11-08T22:32:08.836Z,101049.25
2022-11-08T22:34:40.336Z,101049.50
2022-11-08T22:37:11.250Z,101048.97
2022-11-08T22:39:42.160Z,101053.63
2022-11-08T22:42:13.149Z,101046.72
2022-11-08T22:44:44.385Z,101041.06
2022-11-08T22:47:15.425Z,101054.25
2022-11-08T22:49:46.460Z,101054.84
2022-11-08T22:52:17.367Z,101052.75
2022-11-08T22:54:48.286Z,101053.84
2022-11-08T22:57:19.630Z,101045.56
2022-11-08T22:59:50.610Z,101040.84
2022-11-08T23:02:21.559Z,101047.31
2022-11-08T23:04:52.531Z,101038.59
2022-11-08T23:07:23.446Z,101042.44
2022-11-08T23:09:54.420Z,101038.28
2022-11-08T23:12:43.309Z,101030.78
2022-11-08T23:15:32.762Z,101023.31
2022-11-08T23:18:03.768Z,101015.50
2022-11-08T23:20:53.301Z,101012.84
2022-11-08T23:23:42.114Z,101017.03
2022-11-08T23:26:13.288Z,101017.03
2022-11-08T23:29:02.584Z,101005.88
2022-11-08T23:31:39.538Z,101016.75
2022-11-08T23:34:10.589Z,101001.47
2022-11-08T23:36:41.742Z,101005.66
2022-11-08T23:39:12.758Z,100991.34
2022-11-08T23:42:02.351Z,101007.38
2022-11-08T23:44:33.750Z,101007.19
2022-11-08T23:47:04.691Z,101008.84
2022-11-08T23:49:35.637Z,101011.13
2022-11-08T23:52:07.054Z,100999.69
2022-11-08T23:54:38.432Z,100997.81
2022-11-08T23:57:09.358Z,100994.72
2022-11-08T23:59:40.318Z,100997.75
